Time;durP1;ratioP1;P1;durP2;ratioP2;P2;SDS_P1;SDS_P2;PMS_P1;PMS_P2;Temp;Humidity;BMP_temperature;BMP_pressure;BME280_temperature;BME280_humidity;BME280_pressure;Samples;Min_cycle;Max_cycle;Signal;HPM_P1;HPM_P2
2021/11/28 00:01:49;;;;;;;122.77;76.00;;;2.90;98.30;;;;;;5134253;23;20509;-82
2021/11/28 00:03:53;;;;;;;61.58;41.30;;;2.90;98.30;;;;;;5120233;23;20522;-82
2021/11/28 00:05:59;;;;;;;35.88;26.40;;;3.00;98.30;;;;;;5119972;23;20187;-82
2021/11/28 00:08:20;;;;;;;27.98;22.90;;;2.90;98.30;;;;;;5119632;23;20210;-83
2021/11/28 00:10:43;;;;;;;25.50;20.77;;;2.90;98.30;;;;;;5127432;23;20175;-82
2021/11/28 00:12:48;;;;;;;29.63;22.03;;;2.90;98.30;;;;;;5128490;23;20446;-82
2021/11/28 00:14:55;;;;;;;29.73;22.60;;;2.80;98.30;;;;;;5119549;23;20413;-82
2021/11/28 00:16:58;;;;;;;26.30;21.90;;;2.90;98.30;;;;;;5134536;23;20182;-82
2021/11/28 00:19:01;;;;;;;28.10;22.50;;;2.90;98.30;;;;;;5135102;23;20481;-83
2021/11/28 00:21:05;;;;;;;29.33;23.27;;;2.90;98.30;;;;;;5135809;23;20505;-84
2021/11/28 00:23:08;;;;;;;27.98;21.48;;;2.90;98.30;;;;;;5135542;23;20230;-82
2021/11/28 00:25:13;;;;;;;30.17;21.70;;;2.90;98.30;;;;;;5134977;23;20657;-82
2021/11/28 00:27:17;;;;;;;28.95;22.90;;;2.90;98.30;;;;;;5120314;23;20419;-82
2021/11/28 00:29:20;;;;;;;28.45;21.70;;;2.90;98.30;;;;;;5117270;23;20187;-83
2021/11/28 00:31:24;;;;;;;25.17;20.63;;;2.90;98.30;;;;;;5126320;23;20656;-82
2021/11/28 00:33:27;;;;;;;50.38;36.03;;;2.80;98.30;;;;;;5117597;23;20509;-82
2021/11/28 00:35:36;;;;;;;50.25;38.05;;;2.80;98.30;;;;;;5126542;23;20254;-82
2021/11/28 00:37:39;;;;;;;54.27;38.67;;;2.80;98.30;;;;;;5118302;23;20234;-82
2021/11/28 00:39:46;;;;;;;33.23;24.43;;;2.80;98.30;;;;;;5126301;23;20426;-83
2021/11/28 00:41:49;;;;;;;31.27;23.80;;;2.80;98.30;;;;;;5126185;23;20440;-83
2021/11/28 00:44:05;;;;;;;31.58;21.85;;;2.70;98.30;;;;;;5126753;23;20187;-83
2021/11/28 00:46:08;;;;;;;33.30;22.75;;;2.60;98.30;;;;;;5139386;23;20179;-83
2021/11/28 00:48:17;;;;;;;30.27;23.38;;;2.70;98.30;;;;;;5123809;23;20203;-83
2021/11/28 00:50:39;;;;;;;28.42;21.75;;;2.60;98.30;;;;;;5119907;23;20173;-82
2021/11/28 00:52:43;;;;;;;31.90;23.35;;;2.70;98.30;;;;;;5118341;23;20218;-83
2021/11/28 00:54:47;;;;;;;31.13;22.17;;;2.60;98.30;;;;;;5119562;23;20183;-82
2021/11/28 00:56:50;;;;;;;29.60;23.35;;;2.50;98.30;;;;;;5128577;23;20258;-83
2021/11/28 00:58:52;;;;;;;28.02;23.63;;;2.50;98.30;;;;;;5123289;23;20209;-82
2021/11/28 01:00:55;;;;;;;29.80;24.10;;;2.50;98.30;;;;;;5117436;23;20193;-82
2021/11/28 01:02:59;;;;;;;30.23;24.80;;;2.50;98.30;;;;;;5117614;23;20246;-82
2021/11/28 01:05:06;;;;;;;33.55;24.92;;;2.50;98.30;;;;;;5117754;23;20194;-82
2021/11/28 01:07:09;;;;;;;28.70;23.15;;;2.60;98.30;;;;;;5117657;23;20683;-82
2021/11/28 01:09:12;;;;;;;31.48;24.05;;;2.50;98.30;;;;;;5124365;23;20603;-82
2021/11/28 01:11:15;;;;;;;29.23;22.88;;;2.50;98.30;;;;;;5128512;23;20262;-82
2021/11/28 01:13:19;;;;;;;30.13;22.85;;;2.50;98.30;;;;;;5122903;23;20695;-83
2021/11/28 01:15:22;;;;;;;31.10;23.45;;;2.50;98.30;;;;;;5120619;23;20187;-82
2021/11/28 01:17:26;;;;;;;31.27;24.60;;;2.50;98.30;;;;;;5118907;23;20183;-82
2021/11/28 01:19:29;;;;;;;32.95;23.08;;;2.50;98.30;;;;;;5126471;23;20255;-83
2021/11/28 01:21:33;;;;;;;32.97;24.30;;;2.50;98.30;;;;;;5127064;23;20190;-82
2021/11/28 01:23:36;;;;;;;33.28;23.70;;;2.50;98.30;;;;;;5126996;23;20428;-82
2021/11/28 01:25:44;;;;;;;31.20;26.08;;;2.40;98.30;;;;;;5126365;23;20166;-82
2021/11/28 01:27:47;;;;;;;30.97;24.63;;;2.40;98.30;;;;;;5117660;23;20530;-83
2021/11/28 01:29:50;;;;;;;32.30;24.70;;;2.40;98.30;;;;;;5117944;23;21012;-82
2021/11/28 01:31:54;;;;;;;32.45;24.52;;;2.50;98.30;;;;;;5126572;23;20195;-83
2021/11/28 01:33:57;;;;;;;33.20;24.35;;;2.50;98.30;;;;;;5117349;23;20186;-83
2021/11/28 01:36:00;;;;;;;32.25;24.27;;;2.50;98.30;;;;;;5129500;23;20182;-82
2021/11/28 01:38:06;;;;;;;30.23;23.77;;;2.50;98.30;;;;;;5126579;23;20582;-82
2021/11/28 01:40:12;;;;;;;35.78;25.55;;;2.40;98.30;;;;;;5125986;23;20659;-83
2021/11/28 01:42:15;;;;;;;36.50;26.15;;;2.50;98.30;;;;;;5126145;23;20173;-83
2021/11/28 01:44:18;;;;;;;37.70;26.83;;;2.50;98.30;;;;;;5126539;23;20179;-82
2021/11/28 01:46:22;;;;;;;33.08;25.10;;;2.50;98.30;;;;;;5118039;23;20190;-82
2021/11/28 01:48:25;;;;;;;31.65;25.00;;;2.50;98.30;;;;;;5125782;23;20211;-82
2021/11/28 01:50:31;;;;;;;38.40;26.25;;;2.50;98.30;;;;;;5125537;23;20197;-83
2021/11/28 01:52:36;;;;;;;35.03;26.42;;;2.40;98.30;;;;;;5125686;23;20199;-82
2021/11/28 01:54:41;;;;;;;34.13;25.55;;;2.40;98.30;;;;;;5125245;23;20183;-82
2021/11/28 01:56:46;;;;;;;32.72;23.92;;;2.40;98.30;;;;;;5117591;23;20186;-82
2021/11/28 01:58:50;;;;;;;32.45;25.40;;;2.40;98.30;;;;;;5126007;23;20237;-82
2021/11/28 02:00:56;;;;;;;34.40;26.67;;;2.40;98.30;;;;;;5126048;23;20187;-82
2021/11/28 02:03:00;;;;;;;35.65;24.48;;;2.40;98.30;;;;;;5122277;23;20669;-82
2021/11/28 02:05:06;;;;;;;32.42;23.75;;;2.30;98.30;;;;;;5117375;23;20559;-82
2021/11/28 02:07:09;;;;;;;31.88;25.67;;;2.40;98.30;;;;;;5117692;23;20685;-82
2021/11/28 02:09:12;;;;;;;33.60;26.48;;;2.40;98.30;;;;;;5116410;23;20203;-82
2021/11/28 02:11:16;;;;;;;32.85;24.92;;;2.40;98.30;;;;;;5116308;23;20269;-82
2021/11/28 02:13:21;;;;;;;31.40;24.00;;;2.50;98.30;;;;;;5116102;23;20209;-82
2021/11/28 02:15:25;;;;;;;32.47;23.25;;;2.60;98.30;;;;;;5124702;23;20190;-83
2021/11/28 02:17:29;;;;;;;31.13;23.92;;;2.60;98.30;;;;;;5124053;23;20199;-82
2021/11/28 02:19:32;;;;;;;33.50;25.05;;;2.60;98.30;;;;;;5124388;23;20527;-82
2021/11/28 02:21:36;;;;;;;30.13;22.88;;;2.60;98.30;;;;;;5124564;23;20175;-82
2021/11/28 02:23:40;;;;;;;31.10;22.63;;;2.60;98.30;;;;;;5123992;23;20616;-82
2021/11/28 02:25:43;;;;;;;36.55;23.80;;;2.60;98.30;;;;;;5124627;23;20217;-82
2021/11/28 02:27:47;;;;;;;36.08;25.48;;;2.60;98.30;;;;;;5116800;23;20211;-82
2021/11/28 02:29:52;;;;;;;40.10;24.35;;;2.50;98.30;;;;;;5124949;23;20185;-82
2021/11/28 02:31:55;;;;;;;34.97;24.38;;;2.60;98.30;;;;;;5124756;23;20181;-82
2021/11/28 02:33:58;;;;;;;36.97;24.80;;;2.60;98.30;;;;;;5128010;23;20206;-81
2021/11/28 02:36:01;;;;;;;38.95;26.73;;;2.50;98.30;;;;;;5120200;23;20197;-81
2021/11/28 02:38:08;;;;;;;40.10;26.23;;;2.50;98.30;;;;;;5127533;23;20201;-82
2021/11/28 02:40:13;;;;;;;45.28;28.98;;;2.50;98.30;;;;;;5119792;23;20170;-81
2021/11/28 02:42:18;;;;;;;43.22;26.58;;;2.50;98.30;;;;;;5126481;23;20175;-82
2021/11/28 02:44:21;;;;;;;38.83;26.77;;;2.50;98.30;;;;;;5126124;23;20237;-81
2021/11/28 02:46:24;;;;;;;40.50;27.15;;;2.50;98.30;;;;;;5117177;23;20215;-82
2021/11/28 02:48:27;;;;;;;68.93;28.25;;;2.60;98.30;;;;;;5125451;23;20209;-81
2021/11/28 02:50:30;;;;;;;44.70;27.63;;;2.60;98.30;;;;;;5117135;23;20189;-81
2021/11/28 02:52:33;;;;;;;44.85;28.88;;;2.60;98.30;;;;;;5124353;23;20179;-82
2021/11/28 02:54:38;;;;;;;49.15;28.02;;;2.50;98.30;;;;;;5125029;23;20183;-82
2021/11/28 02:56:42;;;;;;;45.45;26.70;;;2.50;98.30;;;;;;5117269;23;20639;-81
2021/11/28 02:58:46;;;;;;;41.97;26.58;;;2.50;98.30;;;;;;5117724;23;20594;-82
2021/11/28 03:00:52;;;;;;;64.93;28.70;;;2.50;98.30;;;;;;5125754;23;20441;-82
2021/11/28 03:02:56;;;;;;;48.35;26.95;;;2.50;98.30;;;;;;5117525;23;20180;-81
2021/11/28 03:04:59;;;;;;;43.75;28.10;;;2.50;98.30;;;;;;5125872;23;20257;-82
2021/11/28 03:07:02;;;;;;;67.18;29.38;;;2.50;98.30;;;;;;5124838;23;20258;-82
2021/11/28 03:09:06;;;;;;;73.13;30.10;;;2.60;98.30;;;;;;5125387;23;20195;-82
2021/11/28 03:11:13;;;;;;;51.97;28.87;;;2.60;98.30;;;;;;5116992;23;20432;-81
2021/11/28 03:13:25;;;;;;;77.10;30.25;;;2.60;98.30;;;;;;5116942;23;20743;-81
2021/11/28 03:15:28;;;;;;;77.53;31.37;;;2.60;98.30;;;;;;5125550;23;20186;-81
2021/11/28 03:17:31;;;;;;;63.58;28.77;;;2.60;98.30;;;;;;5125900;23;20432;-81
2021/11/28 03:19:34;;;;;;;50.45;30.25;;;2.60;98.30;;;;;;5126497;23;20190;-82
2021/11/28 03:21:39;;;;;;;73.68;32.13;;;2.60;98.30;;;;;;5126747;23;20179;-82
2021/11/28 03:23:44;;;;;;;57.13;29.30;;;2.70;98.30;;;;;;5125481;23;20877;-82
2021/11/28 03:25:47;;;;;;;45.33;29.45;;;2.70;98.30;;;;;;5125960;23;20429;-81
2021/11/28 03:27:52;;;;;;;41.37;27.60;;;2.70;98.30;;;;;;5126106;23;20829;-81
2021/11/28 03:29:55;;;;;;;45.60;29.08;;;2.70;98.30;;;;;;5118251;23;20453;-81
2021/11/28 03:31:59;;;;;;;43.30;27.45;;;2.60;98.30;;;;;;5117723;23;20194;-81
2021/11/28 03:34:02;;;;;;;42.55;27.95;;;2.60;98.30;;;;;;5118791;23;20851;-82
2021/11/28 03:36:05;;;;;;;43.83;27.40;;;2.60;98.30;;;;;;5127759;23;20179;-81
2021/11/28 03:38:09;;;;;;;41.83;28.58;;;2.70;98.30;;;;;;5119417;23;20270;-81
2021/11/28 03:40:14;;;;;;;46.70;29.50;;;2.60;98.30;;;;;;5128889;23;20205;-81
2021/11/28 03:42:17;;;;;;;43.45;28.10;;;2.70;98.30;;;;;;5127650;23;20411;-82
2021/11/28 03:44:22;;;;;;;40.13;28.10;;;2.70;98.30;;;;;;5127963;23;20254;-81
2021/11/28 03:46:27;;;;;;;44.13;29.92;;;2.70;98.30;;;;;;5129455;23;20242;-82
2021/11/28 03:48:30;;;;;;;39.97;28.30;;;2.60;98.30;;;;;;5130721;23;20199;-82
2021/11/28 03:50:34;;;;;;;45.60;29.15;;;2.60;98.30;;;;;;5130996;23;20179;-81
2021/11/28 03:52:37;;;;;;;42.25;29.25;;;2.60;98.30;;;;;;5121870;23;20193;-81
2021/11/28 03:54:40;;;;;;;42.38;29.30;;;2.60;98.30;;;;;;5129081;23;20198;-81
2021/11/28 03:56:43;;;;;;;41.60;27.90;;;2.60;98.30;;;;;;5129157;23;20183;-82
2021/11/28 03:58:46;;;;;;;41.35;27.30;;;2.60;98.30;;;;;;5129790;23;20653;-82
2021/11/28 04:00:50;;;;;;;43.50;28.55;;;2.60;98.30;;;;;;5129263;23;20661;-82
2021/11/28 04:02:53;;;;;;;41.03;27.77;;;2.60;98.30;;;;;;5120864;23;20258;-82
2021/11/28 04:04:57;;;;;;;44.63;27.60;;;2.60;98.30;;;;;;5127290;23;20175;-81
2021/11/28 04:07:00;;;;;;;40.90;27.70;;;2.60;98.30;;;;;;5127489;23;20179;-81
2021/11/28 04:09:03;;;;;;;39.17;26.52;;;2.60;98.30;;;;;;5119864;23;20207;-81
2021/11/28 04:11:06;;;;;;;49.40;30.42;;;2.60;98.30;;;;;;5127190;23;20625;-81
2021/11/28 04:13:09;;;;;;;38.92;26.05;;;2.60;98.30;;;;;;5127545;23;20183;-81
2021/11/28 04:15:12;;;;;;;43.15;28.70;;;2.60;98.30;;;;;;5127017;23;20245;-81
2021/11/28 04:17:16;;;;;;;40.22;27.90;;;2.60;98.30;;;;;;5118450;23;20184;-81
2021/11/28 04:19:19;;;;;;;41.10;27.02;;;2.60;98.30;;;;;;5127283;23;20175;-81
2021/11/28 04:21:22;;;;;;;45.40;29.25;;;2.60;98.30;;;;;;5119901;23;20247;-81
2021/11/28 04:23:25;;;;;;;40.40;25.80;;;2.60;98.30;;;;;;5127050;23;20194;-82
2021/11/28 04:25:28;;;;;;;38.97;26.63;;;2.60;98.30;;;;;;5127888;23;20548;-82
2021/11/28 04:27:31;;;;;;;35.58;26.05;;;2.60;98.30;;;;;;5119972;23;20179;-82
2021/11/28 04:29:34;;;;;;;39.70;26.20;;;2.70;98.30;;;;;;5128255;23;20182;-82
2021/11/28 04:31:38;;;;;;;36.95;25.80;;;2.60;98.30;;;;;;5120826;23;20189;-81
2021/11/28 04:33:42;;;;;;;40.40;26.48;;;2.70;98.30;;;;;;5120287;23;20675;-81
2021/11/28 04:35:47;;;;;;;42.42;28.50;;;2.60;98.30;;;;;;5128752;23;20199;-81
2021/11/28 04:37:51;;;;;;;40.80;27.05;;;2.60;98.30;;;;;;5127178;23;20210;-81
2021/11/28 04:39:54;;;;;;;39.10;26.27;;;2.70;98.30;;;;;;5119840;23;20194;-81
2021/11/28 04:41:57;;;;;;;36.85;26.77;;;2.70;98.30;;;;;;5127364;23;20202;-82
2021/11/28 04:44:00;;;;;;;35.90;25.15;;;2.70;98.30;;;;;;5128115;23;20545;-81
2021/11/28 04:46:03;;;;;;;37.75;25.08;;;2.60;98.30;;;;;;5127497;23;20179;-81
2021/11/28 04:48:07;;;;;;;37.10;25.75;;;2.70;98.30;;;;;;5119326;23;20318;-81
2021/11/28 04:50:15;;;;;;;39.80;27.67;;;2.60;98.30;;;;;;5119629;23;20263;-81
2021/11/28 04:52:18;;;;;;;36.90;25.80;;;2.60;98.30;;;;;;5119163;23;20550;-81
2021/11/28 04:54:24;;;;;;;35.78;24.50;;;2.60;98.30;;;;;;5119510;23;20234;-81
2021/11/28 04:56:28;;;;;;;37.90;26.23;;;2.60;98.30;;;;;;5119315;23;20164;-81
2021/11/28 04:58:31;;;;;;;40.42;26.63;;;2.60;98.30;;;;;;5127437;23;20232;-81
2021/11/28 05:00:34;;;;;;;37.38;27.23;;;2.60;98.30;;;;;;5128331;23;20632;-81
2021/11/28 05:02:39;;;;;;;38.47;25.73;;;2.60;98.30;;;;;;5120026;23;20183;-82
2021/11/28 05:04:43;;;;;;;39.00;28.00;;;2.60;98.30;;;;;;5119319;23;20254;-82
2021/11/28 05:06:47;;;;;;;37.70;26.90;;;2.60;98.30;;;;;;5119732;23;20182;-81
2021/11/28 05:08:50;;;;;;;37.15;26.88;;;2.60;98.30;;;;;;5120441;23;20207;-82
2021/11/28 05:10:53;;;;;;;39.70;26.42;;;2.60;98.30;;;;;;5120887;23;20518;-82
2021/11/28 05:12:56;;;;;;;38.47;26.63;;;2.60;98.30;;;;;;5128317;23;20185;-82
2021/11/28 05:14:59;;;;;;;36.70;26.35;;;2.60;98.30;;;;;;5120796;23;20210;-81
2021/11/28 05:17:01;;;;;;;40.33;27.40;;;2.60;98.30;;;;;;5121450;23;20190;-81
2021/11/28 05:19:05;;;;;;;37.95;26.40;;;2.60;98.30;;;;;;5128341;23;20200;-81
2021/11/28 05:21:08;;;;;;;41.13;27.00;;;2.60;98.30;;;;;;5128262;23;20262;-81
2021/11/28 05:23:12;;;;;;;39.28;26.38;;;2.60;98.30;;;;;;5119900;23;20183;-81
2021/11/28 05:25:16;;;;;;;36.00;25.33;;;2.60;98.30;;;;;;5128017;23;20186;-81
2021/11/28 05:27:19;;;;;;;36.80;26.10;;;2.60;98.30;;;;;;5120527;23;20186;-81
2021/11/28 05:29:22;;;;;;;38.53;27.52;;;2.60;98.30;;;;;;5128719;23;20545;-81
2021/11/28 05:31:25;;;;;;;37.33;26.75;;;2.60;98.30;;;;;;5120709;23;20230;-81
2021/11/28 05:33:28;;;;;;;36.47;26.65;;;2.60;98.30;;;;;;5120518;23;20187;-82
2021/11/28 05:35:31;;;;;;;35.08;24.27;;;2.60;98.30;;;;;;5129195;23;20204;-82
2021/11/28 05:37:34;;;;;;;36.17;27.13;;;2.60;98.30;;;;;;5121004;23;20249;-81
2021/11/28 05:39:39;;;;;;;38.58;26.15;;;2.60;98.30;;;;;;5121252;23;20186;-82
2021/11/28 05:41:42;;;;;;;34.35;23.92;;;2.60;98.30;;;;;;5129078;23;20183;-82
2021/11/28 05:43:46;;;;;;;32.83;23.15;;;2.60;98.30;;;;;;5128912;23;20179;-82
2021/11/28 05:45:49;;;;;;;32.17;23.38;;;2.60;98.30;;;;;;5121298;23;20178;-81
2021/11/28 05:47:52;;;;;;;32.45;24.00;;;2.60;98.30;;;;;;5130014;23;20217;-81
2021/11/28 05:49:55;;;;;;;35.50;24.77;;;2.60;98.30;;;;;;5120763;23;20233;-81
2021/11/28 05:51:58;;;;;;;32.78;25.23;;;2.60;98.30;;;;;;5121553;23;20182;-81
2021/11/28 05:54:01;;;;;;;31.50;22.23;;;2.60;98.30;;;;;;5120565;23;20190;-81
2021/11/28 05:56:06;;;;;;;31.75;22.75;;;2.60;98.30;;;;;;5129370;23;20199;-82
2021/11/28 05:58:10;;;;;;;32.17;23.40;;;2.60;98.30;;;;;;5129811;23;20234;-81
2021/11/28 06:00:17;;;;;;;30.75;22.30;;;2.50;98.30;;;;;;5122274;23;20637;-81
2021/11/28 06:02:20;;;;;;;32.60;24.67;;;2.50;98.30;;;;;;5130020;23;20744;-82
2021/11/28 06:04:23;;;;;;;33.80;23.77;;;2.50;98.30;;;;;;5122339;23;20630;-82
2021/11/28 06:06:32;;;;;;;34.88;23.13;;;2.50;98.30;;;;;;5121469;23;20170;-82
2021/11/28 06:08:35;;;;;;;32.63;22.73;;;2.50;98.30;;;;;;5128680;23;20195;-81
2021/11/28 06:10:38;;;;;;;37.63;26.27;;;2.50;98.30;;;;;;5128816;23;20613;-81
2021/11/28 06:12:43;;;;;;;32.25;23.20;;;2.50;98.30;;;;;;5128541;23;20243;-81
2021/11/28 06:14:45;;;;;;;35.35;23.55;;;2.60;98.30;;;;;;5128985;23;20228;-81
2021/11/28 06:16:48;;;;;;;35.97;26.58;;;2.50;98.30;;;;;;5122258;23;20188;-81
2021/11/28 06:18:51;;;;;;;38.08;23.95;;;2.60;98.30;;;;;;5130690;23;20209;-81
2021/11/28 06:20:54;;;;;;;35.42;25.40;;;2.60;98.30;;;;;;5129960;23;20189;-81
2021/11/28 06:22:57;;;;;;;32.72;24.10;;;2.60;98.30;;;;;;5129707;23;20235;-82
2021/11/28 06:25:00;;;;;;;34.45;23.85;;;2.60;98.30;;;;;;5132625;23;20227;-81
2021/11/28 06:27:23;;;;;;;34.80;25.38;;;2.70;98.30;;;;;;5134563;23;20529;-81
2021/11/28 06:29:32;;;;;;;35.40;25.50;;;2.60;98.30;;;;;;5130837;23;20171;-80
2021/11/28 06:31:35;;;;;;;36.70;25.30;;;2.60;98.30;;;;;;5123361;23;20183;-81
2021/11/28 06:33:39;;;;;;;34.45;24.02;;;2.70;98.30;;;;;;5123504;23;20185;-82
2021/11/28 06:35:42;;;;;;;38.38;27.48;;;2.70;98.30;;;;;;5132762;23;20278;-82
2021/11/28 06:37:46;;;;;;;38.65;26.58;;;2.70;98.30;;;;;;5130138;23;20226;-81
2021/11/28 06:39:49;;;;;;;38.08;26.45;;;2.70;98.30;;;;;;5130806;23;20186;-82
2021/11/28 06:41:52;;;;;;;33.53;24.73;;;2.70;98.30;;;;;;5138921;23;20234;-82
2021/11/28 06:43:55;;;;;;;38.50;26.25;;;2.70;98.30;;;;;;5129984;23;20192;-81
2021/11/28 06:46:01;;;;;;;35.30;25.48;;;2.70;98.30;;;;;;5126674;23;20179;-81
2021/11/28 06:48:06;;;;;;;35.65;25.20;;;2.70;98.30;;;;;;5131252;23;20203;-81
2021/11/28 06:50:10;;;;;;;31.38;23.77;;;2.70;98.30;;;;;;5130194;23;20179;-81
2021/11/28 06:52:12;;;;;;;35.20;25.65;;;2.70;98.30;;;;;;5130546;23;20175;-81
2021/11/28 06:54:15;;;;;;;37.88;26.92;;;2.70;98.30;;;;;;5123060;23;20507;-81
2021/11/28 06:56:18;;;;;;;32.30;23.60;;;2.80;98.30;;;;;;5124488;23;20199;-81
2021/11/28 06:58:21;;;;;;;37.13;26.45;;;2.80;98.30;;;;;;5123854;23;20584;-81
2021/11/28 07:00:24;;;;;;;35.75;26.40;;;2.80;98.30;;;;;;5129362;23;20262;-81
2021/11/28 07:02:29;;;;;;;44.08;29.60;;;2.80;98.30;;;;;;5130026;23;20179;-82
2021/11/28 07:04:32;;;;;;;48.35;35.55;;;2.80;98.30;;;;;;5135702;23;20291;-80
2021/11/28 07:06:35;;;;;;;33.60;23.17;;;2.80;98.30;;;;;;5134252;23;20234;-80
2021/11/28 07:08:37;;;;;;;38.30;26.88;;;2.90;98.30;;;;;;5126307;23;20199;-80
2021/11/28 07:10:40;;;;;;;34.00;22.83;;;2.90;98.30;;;;;;5121945;23;20206;-81
2021/11/28 07:12:44;;;;;;;35.88;25.05;;;2.90;98.30;;;;;;5121248;23;20211;-80
2021/11/28 07:14:46;;;;;;;32.15;23.63;;;2.90;98.30;;;;;;5121434;23;20265;-80
2021/11/28 07:16:51;;;;;;;32.83;24.13;;;2.90;98.30;;;;;;5126890;23;20203;-79
2021/11/28 07:18:55;;;;;;;34.17;24.40;;;2.90;98.30;;;;;;5118448;23;20233;-80
2021/11/28 07:20:58;;;;;;;34.90;25.30;;;3.00;98.30;;;;;;5126295;23;20181;-79
2021/11/28 07:23:02;;;;;;;31.83;23.17;;;3.00;98.30;;;;;;5119537;23;20465;-80
2021/11/28 07:25:06;;;;;;;32.00;23.00;;;3.00;98.30;;;;;;5127786;23;20285;-79
2021/11/28 07:27:09;;;;;;;36.45;25.27;;;3.00;98.30;;;;;;5119184;23;20201;-79
2021/11/28 07:29:12;;;;;;;32.88;24.33;;;3.10;98.30;;;;;;5127576;23;20242;-80
2021/11/28 07:31:16;;;;;;;33.72;24.15;;;3.10;98.30;;;;;;5121670;23;20266;-80
2021/11/28 07:33:19;;;;;;;30.63;23.90;;;3.10;98.30;;;;;;5127415;23;20210;-80
2021/11/28 07:35:24;;;;;;;30.03;23.33;;;3.00;98.30;;;;;;5125737;23;20184;-79
2021/11/28 07:37:29;;;;;;;30.00;22.42;;;3.10;98.30;;;;;;5117637;23;20509;-80
2021/11/28 07:39:32;;;;;;;30.83;22.92;;;3.10;98.30;;;;;;5117952;23;20185;-80
2021/11/28 07:41:35;;;;;;;33.63;24.85;;;3.10;98.30;;;;;;5129453;23;20184;-81
2021/11/28 07:43:39;;;;;;;32.23;23.50;;;3.10;98.30;;;;;;5130043;23;20199;-80
2021/11/28 07:45:42;;;;;;;30.65;22.25;;;3.10;98.30;;;;;;5122078;23;20418;-80
2021/11/28 07:47:45;;;;;;;31.92;24.13;;;3.20;98.30;;;;;;5120659;23;20203;-79
2021/11/28 07:49:51;;;;;;;32.00;24.40;;;3.20;98.30;;;;;;5127173;23;20592;-80
2021/11/28 07:51:55;;;;;;;29.95;22.92;;;3.20;98.30;;;;;;5127684;23;20185;-80
2021/11/28 07:54:01;;;;;;;31.20;22.67;;;3.20;98.30;;;;;;5118555;23;20185;-80
2021/11/28 07:56:04;;;;;;;30.50;23.67;;;3.20;98.30;;;;;;5126688;23;20660;-79
2021/11/28 07:58:08;;;;;;;29.33;22.67;;;3.30;98.30;;;;;;5126960;23;20469;-80
2021/11/28 08:00:11;;;;;;;31.20;23.90;;;3.30;98.30;;;;;;5118678;23;20434;-80
2021/11/28 08:02:18;;;;;;;65.00;47.30;;;3.30;98.30;;;;;;5126522;23;20258;-80
2021/11/28 08:04:21;;;;;;;33.85;25.42;;;3.30;98.30;;;;;;5125815;23;20518;-80
2021/11/28 08:06:24;;;;;;;34.27;24.87;;;3.40;98.30;;;;;;5117746;23;20258;-80
2021/11/28 08:08:31;;;;;;;28.30;21.83;;;3.40;98.30;;;;;;5118059;23;20453;-80
2021/11/28 08:10:34;;;;;;;29.70;24.07;;;3.50;98.30;;;;;;5126399;23;20426;-80
2021/11/28 08:12:37;;;;;;;35.07;27.30;;;3.40;98.30;;;;;;5118474;23;20453;-80
2021/11/28 08:14:40;;;;;;;36.57;26.53;;;3.40;98.30;;;;;;5117781;23;20470;-80
2021/11/28 08:16:43;;;;;;;33.60;25.70;;;3.40;98.30;;;;;;5118299;23;20477;-80
2021/11/28 08:18:46;;;;;;;30.80;22.73;;;3.50;98.30;;;;;;5125649;23;20421;-80
2021/11/28 08:20:49;;;;;;;35.17;25.10;;;3.50;98.30;;;;;;5117561;23;20439;-80
2021/11/28 08:22:54;;;;;;;34.77;25.47;;;3.50;98.30;;;;;;5116714;23;20434;-80
2021/11/28 08:24:58;;;;;;;32.77;24.93;;;3.60;98.30;;;;;;5125206;23;20521;-80
2021/11/28 08:27:01;;;;;;;33.53;24.07;;;3.60;98.30;;;;;;5125917;23;20423;-80
2021/11/28 08:29:05;;;;;;;30.10;23.37;;;3.70;98.30;;;;;;5125535;23;20421;-79
2021/11/28 08:31:08;;;;;;;34.73;24.77;;;3.70;98.30;;;;;;5126327;23;20426;-80
2021/11/28 08:50:26;;;;;;;30.50;23.50;;;3.80;98.30;;;;;;4986197;23;20728;-85
2021/11/28 08:53:18;;;;;;;29.27;22.77;;;3.90;98.30;;;;;;4992710;23;20450;-85
2021/11/28 10:43:12;;;;;;;22.30;18.23;;;4.50;98.30;;;;;;5165772;23;20840;-83
2021/11/28 11:09:21;;;;;;;24.97;18.90;;;5.10;98.30;;;;;;5117308;22;20427;-84
2021/11/28 11:11:25;;;;;;;21.20;17.57;;;5.10;98.30;;;;;;5177026;23;20471;-82
2021/11/28 11:13:31;;;;;;;19.50;17.03;;;5.10;98.30;;;;;;5168577;23;20427;-84
2021/11/28 11:15:38;;;;;;;20.90;17.00;;;5.00;98.30;;;;;;5177137;23;20417;-82
2021/11/28 11:17:57;;;;;;;20.40;15.73;;;5.00;98.30;;;;;;5176419;23;20444;-82
2021/11/28 11:20:02;;;;;;;21.73;17.80;;;4.90;98.30;;;;;;5168663;23;20707;-83
2021/11/28 11:22:15;;;;;;;21.50;16.33;;;4.90;98.30;;;;;;5175495;23;20431;-83
2021/11/28 11:24:33;;;;;;;19.77;16.33;;;4.90;98.30;;;;;;5174837;23;20486;-84
2021/11/28 11:26:49;;;;;;;21.47;16.40;;;4.90;98.30;;;;;;5177257;23;20417;-81
2021/11/28 11:29:08;;;;;;;23.30;17.80;;;4.90;98.30;;;;;;5176964;23;20431;-86
2021/11/28 11:31:11;;;;;;;23.77;17.90;;;4.90;98.30;;;;;;5176695;23;20530;-84
2021/11/28 11:33:17;;;;;;;21.53;17.33;;;4.90;98.30;;;;;;5176691;23;20447;-84
2021/11/28 11:35:23;;;;;;;21.13;16.87;;;4.90;98.30;;;;;;5176997;23;20846;-84
2021/11/28 11:37:29;;;;;;;23.20;17.10;;;4.90;98.30;;;;;;5175890;23;20944;-84
2021/11/28 11:39:34;;;;;;;25.20;17.43;;;4.90;98.30;;;;;;5176771;23;20432;-85
2021/11/28 11:41:43;;;;;;;21.97;17.47;;;4.90;98.30;;;;;;5176324;23;20432;-85
2021/11/28 11:43:47;;;;;;;23.90;18.60;;;5.10;98.30;;;;;;5175978;23;20946;-85
2021/11/28 11:45:50;;;;;;;25.20;19.27;;;5.10;98.30;;;;;;5178126;23;20432;-84
2021/11/28 11:47:55;;;;;;;27.63;20.93;;;5.10;98.30;;;;;;5176335;23;20420;-85
2021/11/28 11:49:58;;;;;;;21.93;17.70;;;5.30;98.30;;;;;;5178974;23;21112;-83
2021/11/28 11:52:01;;;;;;;22.90;17.90;;;5.30;98.30;;;;;;5178363;23;20430;-85
2021/11/28 11:54:05;;;;;;;21.70;16.90;;;5.40;98.30;;;;;;5177127;23;20912;-84
2021/11/28 11:56:20;;;;;;;20.40;16.57;;;5.40;98.30;;;;;;5177202;23;20459;-85
2021/11/28 11:58:34;;;;;;;19.77;16.27;;;5.50;98.30;;;;;;5177296;23;20415;-84
2021/11/28 12:00:43;;;;;;;21.10;15.00;;;5.60;98.30;;;;;;5176602;23;20898;-86
2021/11/28 12:02:49;;;;;;;21.10;17.47;;;5.60;98.30;;;;;;5175781;23;20463;-87
2021/11/28 12:04:52;;;;;;;21.20;15.77;;;5.60;98.30;;;;;;5176641;23;20442;-85
2021/11/28 12:07:05;;;;;;;18.83;15.50;;;5.40;98.30;;;;;;5177058;23;20449;-88
2021/11/28 12:09:23;;;;;;;19.70;14.70;;;5.40;98.30;;;;;;5177169;23;20546;-85
2021/11/28 12:11:56;;;;;;;20.17;16.47;;;5.30;98.30;;;;;;5177421;23;20417;-84
2021/11/28 12:14:02;;;;;;;19.70;16.83;;;5.20;98.30;;;;;;5175168;23;20964;-85
2021/11/28 12:16:19;;;;;;;20.10;15.20;;;5.20;98.30;;;;;;5175875;23;20428;-84
2021/11/28 12:18:40;;;;;;;23.17;16.50;;;5.20;98.30;;;;;;5176333;23;20553;-84
2021/11/28 12:21:00;;;;;;;19.47;15.70;;;5.20;98.30;;;;;;5177681;23;20432;-85
2021/11/28 12:24:14;;;;;;;23.97;18.30;;;5.20;98.30;;;;;;5175700;23;20743;-83
2021/11/28 12:30:48;;;;;;;22.40;17.17;;;5.10;98.30;;;;;;5006374;23;20400;-85
2021/11/28 12:36:26;;;;;;;22.27;17.23;;;5.50;98.30;;;;;;5155271;23;20451;-86
2021/11/28 12:39:44;;;;;;;20.23;15.80;;;5.90;98.30;;;;;;5122722;23;20565;-86
2021/11/28 12:42:20;;;;;;;20.90;15.00;;;7.20;98.30;;;;;;5176062;23;20759;-85
2021/11/28 12:48:13;;;;;;;15.17;11.03;;;9.90;98.30;;;;;;5164077;23;20426;-86
2021/11/28 12:56:20;;;;;;;14.70;11.03;;;8.60;98.30;;;;;;5174006;23;20431;-83
2021/11/28 12:58:27;;;;;;;15.40;11.30;;;7.70;98.30;;;;;;5174705;23;20500;-85
2021/11/28 13:00:49;;;;;;;17.00;12.60;;;7.10;98.30;;;;;;5166086;23;20414;-85
2021/11/28 13:03:18;;;;;;;20.43;14.67;;;6.90;98.30;;;;;;5173524;23;20460;-84
2021/11/28 13:06:11;;;;;;;20.30;14.57;;;6.60;98.30;;;;;;5174667;23;21124;-85
2021/11/28 13:08:53;;;;;;;;;;;;;;;;;;;;;
2021/11/28 13:11:23;;;;;;;21.87;16.57;;;5.90;98.30;;;;;;5158824;23;20425;-85
2021/11/28 13:13:36;;;;;;;23.37;18.20;;;5.80;98.30;;;;;;5173726;23;20445;-84
2021/11/28 13:15:41;;;;;;;22.30;17.47;;;5.70;98.30;;;;;;5175142;23;20433;-84
2021/11/28 13:17:47;;;;;;;22.60;17.27;;;5.60;98.30;;;;;;5174745;23;20436;-84
2021/11/28 13:20:50;;;;;;;19.60;17.40;;;5.50;98.30;;;;;;5175073;23;20430;-84
2021/11/28 13:23:00;;;;;;;21.80;16.47;;;5.30;98.30;;;;;;5149777;23;20451;-84
2021/11/28 13:28:25;;;;;;;20.60;16.60;;;5.20;98.30;;;;;;5153551;23;20540;-84
2021/11/28 13:30:39;;;;;;;23.03;18.23;;;5.10;98.30;;;;;;5176123;23;21071;-84
2021/11/28 13:32:43;;;;;;;21.87;17.50;;;5.00;98.30;;;;;;5175680;23;20435;-84
2021/11/28 13:34:51;;;;;;;20.63;17.00;;;5.00;98.30;;;;;;5175877;23;20799;-85
2021/11/28 13:36:58;;;;;;;22.13;16.90;;;4.90;98.30;;;;;;5174814;23;20420;-84
2021/11/28 13:39:04;;;;;;;20.87;16.97;;;4.90;98.30;;;;;;5175934;23;20752;-85
2021/11/28 13:41:22;;;;;;;26.47;20.47;;;4.90;98.30;;;;;;5176906;23;20453;-85